createdAt,value
2018-01-11T00:01:16.314Z,7.90
2018-01-11T00:03:43.739Z,7.90
2018-01-11T00:06:11.167Z,7.90
2018-01-11T00:08:39.519Z,7.90
2018-01-11T00:11:06.956Z,7.90
2018-01-11T00:13:34.383Z,7.90
2018-01-11T00:16:01.811Z,7.90
2018-01-11T00:18:29.247Z,7.90
2018-01-11T00:20:56.679Z,7.90
2018-01-11T00:23:24.115Z,7.80
2018-01-11T00:25:51.547Z,7.80
2018-01-11T00:28:18.983Z,7.90
2018-01-11T00:30:46.415Z,7.90
2018-01-11T00:33:13.847Z,7.80
2018-01-11T00:35:41.278Z,7.90
2018-01-11T00:38:08.875Z,7.90
2018-01-11T00:40:36.296Z,7.90
2018-01-11T00:43:03.783Z,7.90
2018-01-11T00:45:31.235Z,7.90
2018-01-11T00:47:58.680Z,7.90
2018-01-11T00:50:26.111Z,8.00
2018-01-11T00:52:53.551Z,8.00
2018-01-11T00:55:20.977Z,8.00
2018-01-11T00:57:48.607Z,8.00
2018-01-11T01:00:16.027Z,8.00
2018-01-11T01:02:43.458Z,8.00
2018-01-11T01:05:11.195Z,8.00
2018-01-11T01:07:38.635Z,8.00
2018-01-11T01:10:06.053Z,7.90
2018-01-11T01:12:33.492Z,7.90
2018-01-11T01:15:00.918Z,7.90
2018-01-11T01:17:28.347Z,7.80
2018-01-11T01:19:55.779Z,7.90
2018-01-11T01:22:23.979Z,7.80
2018-01-11T01:24:51.396Z,7.80
2018-01-11T01:27:18.835Z,7.80
2018-01-11T01:29:46.251Z,7.80
2018-01-11T01:32:13.683Z,7.80
2018-01-11T01:34:41.883Z,7.90
2018-01-11T01:37:09.355Z,7.80
2018-01-11T01:39:36.787Z,7.90
2018-01-11T01:42:04.225Z,7.90
2018-01-11T01:44:31.658Z,7.90
2018-01-11T01:46:59.091Z,7.90
2018-01-11T01:49:26.511Z,7.90
2018-01-11T01:51:53.954Z,7.90
2018-01-11T01:54:22.139Z,7.90
2018-01-11T01:56:49.566Z,7.90
2018-01-11T01:59:16.991Z,7.90
2018-01-11T02:01:44.424Z,7.90
2018-01-11T02:04:11.851Z,7.90
2018-01-11T02:06:39.278Z,8.00
2018-01-11T02:09:06.715Z,8.00
2018-01-11T02:11:34.139Z,7.90
2018-01-11T02:14:01.579Z,7.90
2018-01-11T02:16:29.000Z,7.90
2018-01-11T02:18:56.426Z,7.90
2018-01-11T02:21:23.855Z,7.80
2018-01-11T02:23:51.396Z,7.80
2018-01-11T02:26:18.807Z,7.70
2018-01-11T02:28:46.243Z,7.70
2018-01-11T02:31:13.676Z,7.70
2018-01-11T02:33:41.106Z,7.80
2018-01-11T02:36:08.531Z,7.80
2018-01-11T02:38:35.978Z,7.70
2018-01-11T02:41:03.408Z,7.80
2018-01-11T02:43:30.923Z,7.70
2018-01-11T02:45:58.439Z,7.70
2018-01-11T02:48:25.875Z,7.80
2018-01-11T02:50:53.304Z,7.80
2018-01-11T02:53:20.735Z,7.80
2018-01-11T02:55:48.155Z,7.80
2018-01-11T02:58:15.595Z,7.80
2018-01-11T03:00:43.019Z,7.80
2018-01-11T03:03:11.215Z,7.80
2018-01-11T03:05:38.698Z,7.80
2018-01-11T03:08:06.140Z,7.80
2018-01-11T03:10:33.563Z,7.80
2018-01-11T03:13:00.991Z,7.80
2018-01-11T03:15:28.423Z,7.80
2018-01-11T03:17:55.871Z,7.80
2018-01-11T03:20:23.292Z,7.80
2018-01-11T03:22:51.486Z,7.80
2018-01-11T03:25:18.910Z,7.80
2018-01-11T03:27:46.339Z,7.90
2018-01-11T03:30:13.768Z,7.90
2018-01-11T03:32:41.207Z,7.90
2018-01-11T03:35:08.643Z,7.80
2018-01-11T03:37:36.866Z,7.80
2018-01-11T03:40:04.305Z,7.70
2018-01-11T03:42:31.735Z,7.70
2018-01-11T03:44:59.150Z,7.70
2018-01-11T03:47:26.606Z,7.70
2018-01-11T03:49:54.032Z,7.70
2018-01-11T03:52:21.458Z,7.80
2018-01-11T03:54:49.642Z,7.80
2018-01-11T03:57:17.074Z,7.80
2018-01-11T03:59:44.514Z,7.90
2018-01-11T04:02:11.949Z,7.90
2018-01-11T04:04:39.379Z,7.90
2018-01-11T04:07:06.807Z,7.90
2018-01-11T04:09:34.242Z,7.90
2018-01-11T04:12:01.667Z,7.90
2018-01-11T04:14:29.109Z,7.90
2018-01-11T04:16:56.530Z,7.90
2018-01-11T04:19:24.115Z,7.90
2018-01-11T04:21:51.530Z,7.90
2018-01-11T04:24:19.730Z,7.80
2018-01-11T04:26:47.154Z,7.80
2018-01-11T04:29:14.591Z,7.80
2018-01-11T04:31:42.023Z,7.90
2018-01-11T04:34:09.463Z,7.90
2018-01-11T04:36:36.882Z,7.90
2018-01-11T04:39:04.317Z,7.90
2018-01-11T04:41:31.747Z,7.90
2018-01-11T04:43:59.175Z,7.80
2018-01-11T04:46:26.595Z,7.80
2018-01-11T04:48:54.035Z,7.80
2018-01-11T04:51:21.456Z,7.90
2018-01-11T04:53:48.891Z,7.80
2018-01-11T04:56:16.315Z,7.80
2018-01-11T04:58:43.748Z,7.80
2018-01-11T05:01:11.178Z,7.80
2018-01-11T05:03:38.606Z,7.80
2018-01-11T05:06:06.795Z,7.80
2018-01-11T05:08:34.231Z,7.80
2018-01-11T05:11:01.651Z,7.80
2018-01-11T05:13:29.090Z,7.80
2018-01-11T05:15:56.518Z,7.80
2018-01-11T05:18:23.959Z,7.80
2018-01-11T05:20:51.387Z,7.80
2018-01-11T05:23:18.827Z,7.80
2018-01-11T05:25:46.412Z,7.80
2018-01-11T05:28:14.615Z,7.80
2018-01-11T05:30:42.043Z,7.80
2018-01-11T05:33:09.479Z,7.80
2018-01-11T05:35:36.916Z,7.80
2018-01-11T05:38:04.352Z,7.80
2018-01-11T05:40:31.783Z,7.70
2018-01-11T05:42:59.210Z,7.70
2018-01-11T05:45:26.635Z,7.60
2018-01-11T05:47:54.067Z,7.60
2018-01-11T05:50:21.495Z,7.60
2018-01-11T05:52:49.694Z,7.60
2018-01-11T05:55:17.122Z,7.60
2018-01-11T05:57:44.560Z,7.60
2018-01-11T06:00:11.989Z,7.70
2018-01-11T06:02:39.406Z,7.70
2018-01-11T06:05:06.943Z,7.70
2018-01-11T06:07:34.364Z,7.70
2018-01-11T06:10:01.824Z,7.70
2018-01-11T06:12:29.250Z,7.70
2018-01-11T06:14:56.690Z,7.70
2018-01-11T06:17:24.135Z,7.70
2018-01-11T06:19:52.336Z,7.70
2018-01-11T06:22:19.767Z,7.70
2018-01-11T06:24:47.211Z,7.70
2018-01-11T06:27:14.644Z,7.70
2018-01-11T06:29:42.089Z,7.70
2018-01-11T06:32:09.524Z,7.70
2018-01-11T06:34:36.955Z,7.70
2018-01-11T06:37:04.388Z,7.70
2018-01-11T06:39:32.587Z,7.70
2018-01-11T06:42:00.025Z,7.70
2018-01-11T06:44:27.447Z,7.70
2018-01-11T06:46:54.881Z,7.70
2018-01-11T06:49:22.299Z,7.70
2018-01-11T06:51:50.504Z,7.70
2018-01-11T06:54:17.965Z,7.70
2018-01-11T06:56:45.428Z,7.70
2018-01-11T06:59:12.847Z,7.70
2018-01-11T07:01:40.282Z,7.70
2018-01-11T07:04:07.728Z,7.70
2018-01-11T07:06:35.130Z,7.80
2018-01-11T07:09:02.551Z,7.80
2018-01-11T07:11:30.759Z,7.80
2018-01-11T07:13:58.186Z,7.80
2018-01-11T07:16:25.606Z,7.90
2018-01-11T07:18:53.038Z,7.90
2018-01-11T07:21:20.458Z,7.90
2018-01-11T07:23:48.655Z,7.80
2018-01-11T07:26:16.124Z,7.80
2018-01-11T07:28:43.607Z,7.80
2018-01-11T07:31:11.005Z,7.90
2018-01-11T07:33:38.476Z,7.90
2018-01-11T07:36:06.626Z,7.80
2018-01-11T07:38:34.060Z,7.80
2018-01-11T07:41:01.487Z,7.90
2018-01-11T07:43:28.918Z,7.90
2018-01-11T07:45:56.343Z,7.90
2018-01-11T07:48:23.764Z,7.90
2018-01-11T07:50:51.214Z,7.90
2018-01-11T07:53:18.634Z,8.00
2018-01-11T07:55:46.070Z,8.00
2018-01-11T07:58:14.255Z,8.00
2018-01-11T08:00:41.686Z,8.00
2018-01-11T08:03:09.108Z,7.90
2018-01-11T08:05:36.550Z,8.00
2018-01-11T08:08:03.979Z,8.00
2018-01-11T08:10:31.414Z,8.00
2018-01-11T08:12:58.827Z,8.00
2018-01-11T08:15:26.259Z,8.00
2018-01-11T08:17:53.678Z,8.00
2018-01-11T08:20:21.119Z,8.00
2018-01-11T08:22:48.699Z,8.10
2018-01-11T08:25:16.890Z,8.20
2018-01-11T08:27:44.318Z,8.20
2018-01-11T08:30:11.742Z,8.20
2018-01-11T08:32:39.188Z,8.30
2018-01-11T08:35:06.598Z,8.30
2018-01-11T08:37:34.804Z,8.20
2018-01-11T08:40:02.226Z,8.20
2018-01-11T08:42:29.659Z,8.20
2018-01-11T08:44:57.123Z,8.20
2018-01-11T08:47:24.551Z,8.20
2018-01-11T08:49:51.975Z,8.30
2018-01-11T08:52:19.407Z,8.30
2018-01-11T08:54:47.627Z,8.40
2018-01-11T08:57:15.067Z,8.40
2018-01-11T08:59:42.490Z,8.40
2018-01-11T09:02:09.915Z,8.40
2018-01-11T09:04:37.344Z,8.40
2018-01-11T09:07:04.766Z,8.30
2018-01-11T09:09:32.958Z,8.30
2018-01-11T09:12:00.378Z,8.30
2018-01-11T09:14:27.815Z,8.40
2018-01-11T09:16:55.239Z,8.40
2018-01-11T09:19:22.666Z,8.40
2018-01-11T09:21:50.087Z,8.50
2018-01-11T09:24:17.520Z,8.50
2018-01-11T09:26:44.939Z,8.50
2018-01-11T09:29:12.366Z,8.60
2018-01-11T09:31:39.787Z,8.60
2018-01-11T09:34:07.223Z,8.70
2018-01-11T09:36:34.640Z,8.80
2018-01-11T09:39:02.063Z,8.90
2018-01-11T09:41:29.483Z,8.90
2018-01-11T09:43:56.915Z,8.80
2018-01-11T09:46:25.107Z,8.80
2018-01-11T09:48:52.546Z,8.80
2018-01-11T09:51:19.966Z,8.80
2018-01-11T09:53:47.399Z,8.80
2018-01-11T09:56:14.832Z,8.80
2018-01-11T09:58:42.247Z,8.90
2018-01-11T10:01:09.678Z,8.90
2018-01-11T10:03:37.098Z,9.00
2018-01-11T10:06:04.534Z,9.00
2018-01-11T10:08:32.135Z,9.00
2018-01-11T10:10:59.570Z,9.00
2018-01-11T10:13:27.015Z,9.00
2018-01-11T10:15:54.448Z,8.90
2018-01-11T10:18:22.635Z,9.00
2018-01-11T10:20:50.075Z,9.00
2018-01-11T10:23:17.495Z,9.00
2018-01-11T10:25:44.933Z,9.10
2018-01-11T10:28:12.351Z,9.10
2018-01-11T10:30:40.548Z,9.30
2018-01-11T10:33:07.979Z,9.30
2018-01-11T10:35:35.398Z,9.40
2018-01-11T10:38:02.839Z,9.50
2018-01-11T10:40:30.405Z,9.50
2018-01-11T10:42:58.192Z,9.60
2018-01-11T10:45:25.619Z,9.70
2018-01-11T10:47:53.050Z,9.70
2018-01-11T10:50:20.479Z,9.80
2018-01-11T10:52:47.911Z,9.80
2018-01-11T10:55:15.339Z,9.80
2018-01-11T10:57:42.767Z,9.90
2018-01-11T11:00:10.190Z,9.90
2018-01-11T11:02:43.182Z,10.00
2018-01-11T11:05:11.370Z,10.10
2018-01-11T11:07:38.819Z,10.10
2018-01-11T11:10:07.015Z,10.10
2018-01-11T11:12:34.447Z,10.10
2018-01-11T11:15:01.883Z,10.20
2018-01-11T11:17:29.315Z,10.30
2018-01-11T11:19:56.751Z,10.40
2018-01-11T11:22:24.183Z,10.40
2018-01-11T11:24:51.620Z,10.40
2018-01-11T11:27:19.047Z,10.50
2018-01-11T11:29:46.482Z,10.50
2018-01-11T11:32:13.906Z,10.50
2018-01-11T11:34:41.435Z,10.60
2018-01-11T11:37:08.863Z,10.60
2018-01-11T11:39:36.407Z,10.70
2018-01-11T11:42:03.839Z,10.80
2018-01-11T11:44:31.270Z,10.90
2018-01-11T11:46:58.702Z,10.90
2018-01-11T11:49:26.148Z,10.90
2018-01-11T11:51:53.576Z,11.00
2018-01-11T11:54:21.139Z,11.00
2018-01-11T11:56:48.575Z,11.10
2018-01-11T11:59:15.998Z,11.10
2018-01-11T12:01:43.438Z,11.10
2018-01-11T12:04:10.867Z,11.20
2018-01-11T12:06:38.303Z,11.20
2018-01-11T12:09:05.755Z,11.20
2018-01-11T12:11:33.199Z,11.20
2018-01-11T12:14:01.391Z,11.20
2018-01-11T12:16:28.832Z,11.20
2018-01-11T12:18:56.260Z,11.10
2018-01-11T12:21:23.703Z,11.10
2018-01-11T12:23:51.951Z,11.10
2018-01-11T12:26:19.391Z,11.10
2018-01-11T12:28:46.976Z,11.10
2018-01-11T12:31:14.521Z,11.10
2018-01-11T12:33:41.948Z,11.10
2018-01-11T12:36:09.378Z,11.10
2018-01-11T12:38:36.811Z,11.10
2018-01-11T12:41:04.275Z,11.00
2018-01-11T12:43:31.703Z,11.10
2018-01-11T12:45:59.127Z,11.10
2018-01-11T12:48:26.559Z,11.10
2018-01-11T12:50:53.987Z,11.00
2018-01-11T12:53:21.422Z,11.10
2018-01-11T12:55:48.854Z,11.00
2018-01-11T12:58:16.287Z,11.10
2018-01-11T13:00:43.902Z,11.10
2018-01-11T13:03:11.343Z,11.10
2018-01-11T13:05:38.764Z,11.10
2018-01-11T13:08:06.970Z,11.20
2018-01-11T13:10:34.420Z,11.20
2018-01-11T13:13:01.851Z,11.20
2018-01-11T13:15:29.280Z,11.20
2018-01-11T13:17:56.715Z,11.20
2018-01-11T13:20:24.146Z,11.20
2018-01-11T13:22:51.590Z,11.20
2018-01-11T13:25:19.014Z,11.20
2018-01-11T13:27:46.446Z,11.20
2018-01-11T13:30:13.870Z,11.20
2018-01-11T13:32:41.303Z,11.20
2018-01-11T13:35:08.739Z,11.20
2018-01-11T13:37:36.181Z,11.10
2018-01-11T13:40:03.603Z,11.10
2018-01-11T13:42:31.031Z,11.10
2018-01-11T13:44:58.504Z,11.10
2018-01-11T13:47:25.899Z,11.10
2018-01-11T13:49:53.335Z,11.10
2018-01-11T13:52:20.759Z,11.10
2018-01-11T13:54:48.347Z,11.20
2018-01-11T13:57:15.767Z,11.20
2018-01-11T13:59:43.198Z,11.20
2018-01-11T14:02:10.624Z,11.30
2018-01-11T14:04:38.063Z,11.30
2018-01-11T14:07:05.495Z,11.30
2018-01-11T14:09:32.975Z,11.30
2018-01-11T14:12:01.123Z,11.40
2018-01-11T14:14:28.563Z,11.30
2018-01-11T14:16:55.986Z,11.40
2018-01-11T14:19:23.903Z,11.30
2018-01-11T14:21:51.331Z,11.30
2018-01-11T14:24:18.763Z,11.30
2018-01-11T14:26:46.219Z,11.30
2018-01-11T14:29:13.649Z,11.20
2018-01-11T14:31:41.082Z,11.20
2018-01-11T14:34:08.513Z,11.10
2018-01-11T14:36:35.963Z,11.20
2018-01-11T14:39:03.400Z,11.10
2018-01-11T14:41:30.827Z,11.10
2018-01-11T14:43:58.309Z,11.10
2018-01-11T14:46:25.747Z,11.10
2018-01-11T14:48:53.179Z,11.10
2018-01-11T14:51:20.614Z,11.10
2018-01-11T14:53:48.807Z,11.10
2018-01-11T14:56:16.247Z,11.10
2018-01-11T14:58:43.666Z,11.10
2018-01-11T15:01:11.155Z,11.10
2018-01-11T15:03:38.593Z,11.00
2018-01-11T15:06:06.019Z,11.00
2018-01-11T15:08:33.451Z,11.00
2018-01-11T15:11:00.880Z,11.00
2018-01-11T15:13:29.411Z,10.90
2018-01-11T15:15:56.827Z,10.90
2018-01-11T15:18:24.264Z,10.80
2018-01-11T15:20:51.692Z,10.90
2018-01-11T15:23:19.130Z,10.90
2018-01-11T15:25:46.559Z,10.80
2018-01-11T15:28:13.988Z,10.80
2018-01-11T15:30:42.187Z,10.70
2018-01-11T15:33:09.615Z,10.70
2018-01-11T15:35:37.046Z,10.70
2018-01-11T15:38:05.243Z,10.60
2018-01-11T15:40:32.675Z,10.60
2018-01-11T15:43:00.120Z,10.60
2018-01-11T15:45:27.547Z,10.50
2018-01-11T15:47:54.978Z,10.40
2018-01-11T15:50:22.415Z,10.40
2018-01-11T15:52:49.843Z,10.30
2018-01-11T15:55:17.386Z,10.30
2018-01-11T15:57:44.819Z,10.20
2018-01-11T16:00:12.260Z,10.20
2018-01-11T16:02:39.674Z,10.10
2018-01-11T16:05:07.110Z,10.10
2018-01-11T16:07:34.543Z,10.00
2018-01-11T16:10:01.971Z,10.00
2018-01-11T16:12:30.167Z,9.90
2018-01-11T16:14:57.593Z,9.90
2018-01-11T16:17:25.028Z,9.90
2018-01-11T16:19:52.446Z,9.90
2018-01-11T16:22:19.874Z,9.90
2018-01-11T16:24:48.072Z,9.80
2018-01-11T16:27:15.495Z,9.80
2018-01-11T16:29:42.918Z,9.80
2018-01-11T16:32:10.353Z,9.70
2018-01-11T16:34:37.775Z,9.70
2018-01-11T16:37:05.973Z,9.70
2018-01-11T16:39:33.400Z,9.60
2018-01-11T16:42:00.934Z,9.60
2018-01-11T16:44:28.338Z,9.60
2018-01-11T16:46:55.763Z,9.60
2018-01-11T16:49:23.191Z,9.60
2018-01-11T16:51:50.622Z,9.60
2018-01-11T16:54:18.046Z,9.50
2018-01-11T16:56:46.391Z,9.50
2018-01-11T16:59:13.805Z,9.50
2018-01-11T17:01:41.239Z,9.50
2018-01-11T17:04:08.659Z,9.50
2018-01-11T17:06:36.095Z,9.50
2018-01-11T17:09:03.567Z,9.40
2018-01-11T17:11:30.999Z,9.40
2018-01-11T17:13:58.620Z,9.40
2018-01-11T17:16:26.055Z,9.50
2018-01-11T17:18:54.238Z,9.50
2018-01-11T17:21:21.675Z,9.40
2018-01-11T17:23:49.090Z,9.40
2018-01-11T17:26:17.460Z,9.40
2018-01-11T17:28:44.890Z,9.30
2018-01-11T17:31:13.091Z,9.30
2018-01-11T17:33:40.515Z,9.30
2018-01-11T17:36:07.975Z,9.30
2018-01-11T17:38:35.444Z,9.30
2018-01-11T17:41:02.883Z,9.30
2018-01-11T17:43:30.312Z,9.30
2018-01-11T17:45:57.731Z,9.30
2018-01-11T17:48:25.159Z,9.30
2018-01-11T17:50:52.579Z,9.20
2018-01-11T17:53:20.011Z,9.30
2018-01-11T17:55:47.478Z,9.20
2018-01-11T17:58:14.854Z,9.20
2018-01-11T18:00:42.310Z,9.20
2018-01-11T18:03:09.716Z,9.20
2018-01-11T18:05:37.143Z,9.20
2018-01-11T18:08:04.609Z,9.20
2018-01-11T18:10:32.016Z,9.20
2018-01-11T18:12:59.442Z,9.10
2018-01-11T18:15:26.863Z,9.10
2018-01-11T18:17:55.071Z,9.10
2018-01-11T18:20:22.511Z,9.10
2018-01-11T18:22:49.914Z,9.10
2018-01-11T18:25:17.357Z,9.10
2018-01-11T18:27:44.802Z,9.10
2018-01-11T18:30:12.245Z,9.10
2018-01-11T18:32:39.673Z,9.10
2018-01-11T18:35:08.356Z,9.10
2018-01-11T18:37:36.538Z,9.10
2018-01-11T18:40:03.979Z,9.00
2018-01-11T18:42:31.399Z,9.00
2018-01-11T18:44:58.831Z,9.00
2018-01-11T18:47:26.291Z,9.00
2018-01-11T18:49:53.704Z,9.00
2018-01-11T18:52:21.903Z,9.00
2018-01-11T18:54:49.326Z,9.00
2018-01-11T18:57:16.755Z,9.00
2018-01-11T18:59:45.071Z,8.90
2018-01-11T19:02:12.507Z,8.90
2018-01-11T19:04:39.924Z,8.90
2018-01-11T19:07:07.417Z,8.90
2018-01-11T19:09:34.821Z,8.90
2018-01-11T19:12:02.259Z,8.90
2018-01-11T19:14:29.687Z,8.90
2018-01-11T19:16:57.122Z,8.80
2018-01-11T19:19:24.549Z,8.90
2018-01-11T19:21:51.983Z,8.80
2018-01-11T19:24:19.403Z,8.80
2018-01-11T19:26:46.831Z,8.80
2018-01-11T19:29:14.268Z,8.80
2018-01-11T19:31:41.682Z,8.70
2018-01-11T19:34:09.884Z,8.70
2018-01-11T19:36:37.323Z,8.70
2018-01-11T19:39:04.754Z,8.70
2018-01-11T19:41:32.942Z,8.60
2018-01-11T19:44:00.379Z,8.60
2018-01-11T19:46:27.803Z,8.60
2018-01-11T19:48:55.239Z,8.60
2018-01-11T19:51:22.659Z,8.50
2018-01-11T19:53:50.100Z,8.60
2018-01-11T19:56:18.286Z,8.50
2018-01-11T19:58:45.998Z,8.50
2018-01-11T20:01:13.423Z,8.50
2018-01-11T20:03:40.854Z,8.50
2018-01-11T20:06:08.274Z,8.50
2018-01-11T20:08:35.724Z,8.40
2018-01-11T20:11:03.150Z,8.50
2018-01-11T20:13:30.575Z,8.50
2018-01-11T20:15:58.007Z,8.50
2018-01-11T20:18:25.444Z,8.50
2018-01-11T20:20:52.875Z,8.50
2018-01-11T20:23:20.296Z,8.50
2018-01-11T20:25:47.722Z,8.50
2018-01-11T20:28:15.154Z,8.50
2018-01-11T20:30:42.591Z,8.50
2018-01-11T20:33:10.014Z,8.50
2018-01-11T20:35:37.456Z,8.50
2018-01-11T20:38:04.882Z,8.50
2018-01-11T20:40:32.300Z,8.50
2018-01-11T20:43:00.506Z,8.60
2018-01-11T20:45:27.931Z,8.50
2018-01-11T20:47:55.365Z,8.50
2018-01-11T20:50:22.787Z,8.60
2018-01-11T20:52:50.507Z,8.60
2018-01-11T20:55:18.701Z,8.60
2018-01-11T20:57:46.131Z,8.60
2018-01-11T21:00:13.556Z,8.60
2018-01-11T21:02:40.984Z,8.60
2018-01-11T21:05:08.419Z,8.60
2018-01-11T21:07:35.851Z,8.60
2018-01-11T21:10:04.044Z,8.60
2018-01-11T21:12:31.479Z,8.60
2018-01-11T21:14:58.895Z,8.60
2018-01-11T21:17:26.315Z,8.60
2018-01-11T21:19:53.752Z,8.60
2018-01-11T21:22:21.944Z,8.60
2018-01-11T21:24:49.379Z,8.60
2018-01-11T21:27:16.799Z,8.60
2018-01-11T21:29:44.229Z,8.60
2018-01-11T21:32:11.762Z,8.60
2018-01-11T21:34:39.194Z,8.60
2018-01-11T21:37:06.755Z,8.70
2018-01-11T21:39:34.135Z,8.70
2018-01-11T21:42:01.560Z,8.70
2018-01-11T21:44:28.997Z,8.60
2018-01-11T21:46:56.415Z,8.60
2018-01-11T21:49:23.841Z,8.60
2018-01-11T21:51:52.036Z,8.60
2018-01-11T21:54:19.461Z,8.60
2018-01-11T21:56:46.887Z,8.60
2018-01-11T21:59:14.326Z,8.60
2018-01-11T22:01:41.765Z,8.60
2018-01-11T22:04:09.182Z,8.60
2018-01-11T22:06:37.387Z,8.60
2018-01-11T22:09:04.811Z,8.50
2018-01-11T22:11:32.248Z,8.60
2018-01-11T22:13:59.684Z,8.60
2018-01-11T22:16:27.114Z,8.60
2018-01-11T22:18:54.550Z,8.50
2018-01-11T22:21:22.756Z,8.50
2018-01-11T22:23:50.182Z,8.50
2018-01-11T22:26:17.615Z,8.50
2018-01-11T22:28:45.031Z,8.40
2018-01-11T22:31:12.470Z,8.40
2018-01-11T22:33:39.895Z,8.40
2018-01-11T22:36:08.082Z,8.40
2018-01-11T22:38:35.519Z,8.40
2018-01-11T22:41:02.947Z,8.50
2018-01-11T22:43:30.383Z,8.50
2018-01-11T22:45:57.802Z,8.50
2018-01-11T22:48:25.346Z,8.50
2018-01-11T22:50:52.779Z,8.50
2018-01-11T22:53:20.203Z,8.50
2018-01-11T22:55:47.627Z,8.50
2018-01-11T22:58:15.823Z,8.40
2018-01-11T23:00:43.247Z,8.40
2018-01-11T23:03:10.678Z,8.40
2018-01-11T23:05:38.107Z,8.40
2018-01-11T23:08:05.663Z,8.30
2018-01-11T23:10:33.091Z,8.30
2018-01-11T23:13:00.511Z,8.30
2018-01-11T23:15:27.939Z,8.30
2018-01-11T23:17:55.480Z,8.30
2018-01-11T23:20:22.914Z,8.20
2018-01-11T23:22:50.339Z,8.20
2018-01-11T23:25:17.771Z,8.20
2018-01-11T23:27:45.195Z,8.20
2018-01-11T23:30:12.641Z,8.20
2018-01-11T23:32:40.810Z,8.20
2018-01-11T23:35:08.296Z,8.20
2018-01-11T23:37:35.718Z,8.20
2018-01-11T23:40:03.161Z,8.20
2018-01-11T23:42:30.583Z,8.10
2018-01-11T23:44:58.019Z,8.10
2018-01-11T23:47:25.438Z,8.10
2018-01-11T23:49:52.871Z,8.10
2018-01-11T23:52:21.059Z,8.00
2018-01-11T23:54:48.500Z,8.00
2018-01-11T23:57:15.914Z,8.00
2018-01-11T23:59:43.378Z,8.10
